createdAt,value
2017-06-09T00:00:26.353Z,55.50
2017-06-09T00:02:54.426Z,55.40
2017-06-09T00:05:22.069Z,55.40
2017-06-09T00:07:49.854Z,55.70
2017-06-09T00:10:17.812Z,55.60
2017-06-09T00:12:45.435Z,55.40
2017-06-09T00:15:13.261Z,55.50
2017-06-09T00:17:41.177Z,55.50
2017-06-09T00:20:08.799Z,55.60
2017-06-09T00:22:36.625Z,55.60
2017-06-09T00:25:04.597Z,55.60
2017-06-09T00:27:32.301Z,55.40
2017-06-09T00:30:00.042Z,55.50
2017-06-09T00:32:27.985Z,55.50
2017-06-09T00:34:55.767Z,55.40
2017-06-09T00:37:23.384Z,55.60
2017-06-09T00:39:51.710Z,55.80
2017-06-09T00:42:19.333Z,55.60
2017-06-09T00:44:47.030Z,55.40
2017-06-09T00:47:15.025Z,55.50
2017-06-09T00:49:42.654Z,55.70
2017-06-09T00:52:10.278Z,55.60
2017-06-09T00:54:38.603Z,55.50
2017-06-09T00:57:06.364Z,55.50
2017-06-09T00:59:33.977Z,55.50
2017-06-09T01:02:02.197Z,55.60
2017-06-09T01:04:29.859Z,55.50
2017-06-09T01:06:57.543Z,55.60
2017-06-09T01:09:25.487Z,55.70
2017-06-09T01:11:53.127Z,55.60
2017-06-09T01:14:20.835Z,55.80
2017-06-09T01:16:48.887Z,55.60
2017-06-09T01:19:16.548Z,55.70
2017-06-09T01:21:44.170Z,55.60
2017-06-09T01:24:12.204Z,55.70
2017-06-09T01:26:39.941Z,55.60
2017-06-09T01:29:07.585Z,55.70
2017-06-09T01:31:35.560Z,55.70
2017-06-09T01:34:03.187Z,55.80
2017-06-09T01:36:31.646Z,55.80
2017-06-09T01:38:59.717Z,55.70
2017-06-09T01:41:27.362Z,55.70
2017-06-09T01:43:54.981Z,55.70
2017-06-09T01:46:22.999Z,55.90
2017-06-09T01:48:50.663Z,55.70
2017-06-09T01:51:18.285Z,55.70
2017-06-09T01:53:46.394Z,55.80
2017-06-09T01:56:14.019Z,55.80
2017-06-09T01:58:41.800Z,56.20
2017-06-09T02:01:09.722Z,55.70
2017-06-09T02:03:37.362Z,55.80
2017-06-09T02:06:05.094Z,55.70
2017-06-09T02:08:33.064Z,55.70
2017-06-09T02:11:00.837Z,55.80
2017-06-09T02:13:28.590Z,55.80
2017-06-09T02:15:56.762Z,55.80
2017-06-09T02:18:24.394Z,55.90
2017-06-09T02:20:52.019Z,56.10
2017-06-09T02:23:20.774Z,55.80
2017-06-09T02:25:48.539Z,55.80
2017-06-09T02:28:16.219Z,55.80
2017-06-09T02:30:44.376Z,55.80
2017-06-09T02:33:12.056Z,55.90
2017-06-09T02:35:39.682Z,56.00
2017-06-09T02:38:07.885Z,56.00
2017-06-09T02:40:35.634Z,56.00
2017-06-09T02:43:03.320Z,56.10
2017-06-09T02:45:31.470Z,56.00
2017-06-09T02:47:59.234Z,55.80
2017-06-09T02:50:26.998Z,55.90
2017-06-09T02:52:55.070Z,55.80
2017-06-09T02:55:22.730Z,55.90
2017-06-09T02:57:50.358Z,55.90
2017-06-09T03:00:18.384Z,56.00
2017-06-09T03:02:46.128Z,55.90
2017-06-09T03:05:13.892Z,56.00
2017-06-09T03:07:41.861Z,55.90
2017-06-09T03:10:09.624Z,55.90
2017-06-09T03:12:37.301Z,56.10
2017-06-09T03:15:05.270Z,55.90
2017-06-09T03:17:33.019Z,56.00
2017-06-09T03:20:00.783Z,55.80
2017-06-09T03:22:28.737Z,56.00
2017-06-09T03:24:56.361Z,56.00
2017-06-09T03:27:24.894Z,55.90
2017-06-09T03:29:52.993Z,55.90
2017-06-09T03:32:26.242Z,56.10
2017-06-09T03:34:54.334Z,56.20
2017-06-09T03:37:22.021Z,56.10
2017-06-09T03:39:49.680Z,56.00
2017-06-09T03:42:17.729Z,56.00
2017-06-09T03:44:45.391Z,55.90
2017-06-09T03:47:13.155Z,56.20
2017-06-09T03:49:41.189Z,56.00
2017-06-09T03:52:08.841Z,56.20
2017-06-09T03:54:36.576Z,56.00
2017-06-09T03:57:04.721Z,56.20
2017-06-09T03:59:32.401Z,56.30
2017-06-09T04:02:00.067Z,56.60
2017-06-09T04:04:28.218Z,56.20
2017-06-09T04:06:55.900Z,56.60
2017-06-09T04:09:23.563Z,56.90
2017-06-09T04:11:51.603Z,56.60
2017-06-09T04:14:19.295Z,56.60
2017-06-09T04:16:46.922Z,56.40
2017-06-09T04:19:14.889Z,56.70
2017-06-09T04:21:42.524Z,56.70
2017-06-09T04:24:10.146Z,56.80
2017-06-09T04:26:38.157Z,56.70
2017-06-09T04:29:05.883Z,56.70
2017-06-09T04:31:33.548Z,56.60
2017-06-09T04:34:01.600Z,56.60
2017-06-09T04:36:29.358Z,56.70
2017-06-09T04:38:56.981Z,56.50
2017-06-09T04:41:24.974Z,56.60
2017-06-09T04:43:52.753Z,56.80
2017-06-09T04:46:20.373Z,56.60
2017-06-09T04:48:48.413Z,56.80
2017-06-09T04:51:16.052Z,56.60
2017-06-09T04:53:43.675Z,56.70
2017-06-09T04:56:11.590Z,56.80
2017-06-09T04:58:39.255Z,57.20
2017-06-09T05:01:07.000Z,57.00
2017-06-09T05:03:34.991Z,57.20
2017-06-09T05:06:02.733Z,57.00
2017-06-09T05:08:30.360Z,57.00
2017-06-09T05:10:58.464Z,57.20
2017-06-09T05:13:26.142Z,57.10
2017-06-09T05:15:53.890Z,57.20
2017-06-09T05:18:21.964Z,57.10
2017-06-09T05:20:55.301Z,56.90
2017-06-09T05:23:24.030Z,56.90
2017-06-09T05:25:51.810Z,56.80
2017-06-09T05:28:23.670Z,56.90
2017-06-09T05:30:51.318Z,56.80
2017-06-09T05:33:19.024Z,57.10
2017-06-09T05:35:46.953Z,57.20
2017-06-09T05:38:14.579Z,56.90
2017-06-09T05:40:42.390Z,56.90
2017-06-09T05:43:10.359Z,56.80
2017-06-09T05:45:38.124Z,56.80
2017-06-09T05:48:05.886Z,56.80
2017-06-09T05:50:33.538Z,56.80
2017-06-09T05:53:01.312Z,56.80
2017-06-09T05:55:29.308Z,57.00
2017-06-09T05:57:57.048Z,56.70
2017-06-09T06:00:24.853Z,57.00
2017-06-09T06:02:53.318Z,57.60
2017-06-09T06:05:20.938Z,57.50
2017-06-09T06:07:48.933Z,57.70
2017-06-09T06:10:16.557Z,57.20
2017-06-09T06:12:44.347Z,57.30
2017-06-09T06:15:12.111Z,57.50
2017-06-09T06:17:39.773Z,57.60
2017-06-09T06:20:07.845Z,57.60
2017-06-09T06:22:35.473Z,57.90
2017-06-09T06:25:03.184Z,57.50
2017-06-09T06:27:31.034Z,57.30
2017-06-09T06:29:58.799Z,57.40
2017-06-09T06:32:26.871Z,57.40
2017-06-09T06:34:54.496Z,57.60
2017-06-09T06:37:22.510Z,57.70
2017-06-09T06:39:50.176Z,57.50
2017-06-09T06:42:17.802Z,57.50
2017-06-09T06:44:45.592Z,57.30
2017-06-09T06:47:13.250Z,57.40
2017-06-09T06:49:40.894Z,57.20
2017-06-09T06:52:08.541Z,57.20
2017-06-09T06:54:36.440Z,56.50
2017-06-09T06:57:04.124Z,56.90
2017-06-09T06:59:31.867Z,56.80
2017-06-09T07:01:59.543Z,57.10
2017-06-09T07:04:27.403Z,56.80
2017-06-09T07:06:55.159Z,56.60
2017-06-09T07:09:22.829Z,56.70
2017-06-09T07:11:50.584Z,56.60
2017-06-09T07:14:18.273Z,56.60
2017-06-09T07:16:45.943Z,56.30
2017-06-09T07:19:13.775Z,55.80
2017-06-09T07:21:41.845Z,55.70
2017-06-09T07:24:09.469Z,55.60
2017-06-09T07:26:37.098Z,55.60
2017-06-09T07:29:04.935Z,55.50
2017-06-09T07:31:32.699Z,56.10
2017-06-09T07:34:00.770Z,55.60
2017-06-09T07:36:28.403Z,55.80
2017-06-09T07:38:56.098Z,55.50
2017-06-09T07:41:23.859Z,55.20
2017-06-09T07:43:51.491Z,54.80
2017-06-09T07:46:19.522Z,55.30
2017-06-09T07:48:47.361Z,54.60
2017-06-09T07:51:14.989Z,54.50
2017-06-09T07:53:42.780Z,54.10
2017-06-09T07:56:10.471Z,54.10
2017-06-09T07:58:38.616Z,54.40
2017-06-09T08:01:06.293Z,54.30
2017-06-09T08:03:34.043Z,54.50
2017-06-09T08:06:01.688Z,53.60
2017-06-09T08:08:29.469Z,53.60
2017-06-09T08:10:57.459Z,54.20
2017-06-09T08:13:25.203Z,53.80
2017-06-09T08:15:52.968Z,54.30
2017-06-09T08:18:20.730Z,54.00
2017-06-09T08:20:48.363Z,54.00
2017-06-09T08:23:16.361Z,54.00
2017-06-09T08:25:44.044Z,53.80
2017-06-09T08:28:11.669Z,54.10
2017-06-09T08:30:39.339Z,54.10
2017-06-09T08:33:06.975Z,53.10
2017-06-09T08:35:34.996Z,53.40
2017-06-09T08:38:02.638Z,52.40
2017-06-09T08:40:30.317Z,52.50
2017-06-09T08:42:57.971Z,52.10
2017-06-09T08:45:25.724Z,51.70
2017-06-09T08:47:53.719Z,51.90
2017-06-09T08:50:21.379Z,51.30
2017-06-09T08:52:49.001Z,51.40
2017-06-09T08:55:16.885Z,51.40
2017-06-09T08:57:44.648Z,51.00
2017-06-09T09:00:12.721Z,50.10
2017-06-09T09:02:40.353Z,50.10
2017-06-09T09:05:07.983Z,50.00
2017-06-09T09:07:36.450Z,50.00
2017-06-09T09:10:04.203Z,49.90
2017-06-09T09:12:32.259Z,49.30
2017-06-09T09:15:00.023Z,49.50
2017-06-09T09:17:27.699Z,49.70
2017-06-09T09:19:55.473Z,49.50
2017-06-09T09:22:23.336Z,47.80
2017-06-09T09:24:51.608Z,49.10
2017-06-09T09:27:19.481Z,49.10
2017-06-09T09:29:47.345Z,48.20
2017-06-09T09:32:15.208Z,48.40
2017-06-09T09:34:43.072Z,48.20
2017-06-09T09:37:11.201Z,48.30
2017-06-09T09:39:38.980Z,48.10
2017-06-09T09:42:06.779Z,47.90
2017-06-09T09:44:34.644Z,47.30
2017-06-09T09:47:02.505Z,46.70
2017-06-09T09:49:30.789Z,46.80
2017-06-09T09:51:58.653Z,47.00
2017-06-09T09:54:26.523Z,46.70
2017-06-09T09:56:54.380Z,46.80
2017-06-09T09:59:22.253Z,47.00
2017-06-09T10:01:50.424Z,46.20
2017-06-09T10:04:18.297Z,46.80
2017-06-09T10:06:46.161Z,46.20
2017-06-09T10:09:14.030Z,46.50
2017-06-09T10:11:41.899Z,46.60
2017-06-09T10:14:09.975Z,46.40
2017-06-09T10:16:37.825Z,46.80
2017-06-09T10:19:05.697Z,46.80
2017-06-09T10:21:33.567Z,46.70
2017-06-09T10:24:01.425Z,46.70
2017-06-09T10:26:29.604Z,46.40
2017-06-09T10:28:57.354Z,46.70
2017-06-09T10:31:25.040Z,45.80
2017-06-09T10:33:52.777Z,46.40
2017-06-09T10:36:20.437Z,46.00
2017-06-09T10:38:48.404Z,45.90
2017-06-09T10:41:16.069Z,46.50
2017-06-09T10:43:43.894Z,46.50
2017-06-09T10:46:11.626Z,46.50
2017-06-09T10:48:39.286Z,46.40
2017-06-09T10:51:07.457Z,46.40
2017-06-09T10:53:35.203Z,46.70
2017-06-09T10:56:02.834Z,46.30
2017-06-09T10:58:30.737Z,46.20
2017-06-09T11:00:58.617Z,46.10
2017-06-09T11:03:26.783Z,46.10
2017-06-09T11:05:54.652Z,45.00
2017-06-09T11:08:22.525Z,45.70
2017-06-09T11:10:50.482Z,45.20
2017-06-09T11:13:18.351Z,45.00
2017-06-09T11:15:46.531Z,44.90
2017-06-09T11:18:14.386Z,45.00
2017-06-09T11:20:42.174Z,44.80
2017-06-09T11:23:10.820Z,44.90
2017-06-09T11:25:38.715Z,44.80
2017-06-09T11:28:06.981Z,44.90
2017-06-09T11:30:34.856Z,45.00
2017-06-09T11:33:02.828Z,45.20
2017-06-09T11:35:30.677Z,45.00
2017-06-09T11:37:58.311Z,44.80
2017-06-09T11:40:26.323Z,44.90
2017-06-09T11:42:53.976Z,45.30
2017-06-09T11:45:21.646Z,45.20
2017-06-09T11:47:49.492Z,44.80
2017-06-09T11:50:17.254Z,45.20
2017-06-09T11:52:45.293Z,45.20
2017-06-09T11:55:12.925Z,45.20
2017-06-09T11:57:41.738Z,45.30
2017-06-09T12:00:09.431Z,45.20
2017-06-09T12:02:37.311Z,45.10
2017-06-09T12:05:05.435Z,45.40
2017-06-09T12:07:33.157Z,45.10
2017-06-09T12:10:00.828Z,45.40
2017-06-09T12:12:28.478Z,45.20
2017-06-09T12:14:56.151Z,45.40
2017-06-09T12:17:24.198Z,44.90
2017-06-09T12:19:51.833Z,45.10
2017-06-09T12:22:19.454Z,45.30
2017-06-09T12:24:47.105Z,45.30
2017-06-09T12:27:14.850Z,45.70
2017-06-09T12:29:42.838Z,45.80
2017-06-09T12:32:10.499Z,45.70
2017-06-09T12:34:38.159Z,45.50
2017-06-09T12:37:05.902Z,45.20
2017-06-09T12:39:33.563Z,45.40
2017-06-09T12:42:01.551Z,45.30
2017-06-09T12:44:29.214Z,45.60
2017-06-09T12:46:56.958Z,45.60
2017-06-09T12:49:24.869Z,45.50
2017-06-09T12:51:53.258Z,45.70
2017-06-09T12:54:22.019Z,44.40
2017-06-09T12:56:49.774Z,44.40
2017-06-09T12:59:17.410Z,45.00
2017-06-09T13:01:45.083Z,44.90
2017-06-09T13:04:12.847Z,44.50
2017-06-09T13:06:40.799Z,44.30
2017-06-09T13:09:08.501Z,43.80
2017-06-09T13:11:36.131Z,43.30
2017-06-09T13:14:03.902Z,42.90
2017-06-09T13:16:31.563Z,42.90
2017-06-09T13:18:59.513Z,42.20
2017-06-09T13:21:27.194Z,42.70
2017-06-09T13:23:55.084Z,42.30
2017-06-09T13:26:22.738Z,42.20
2017-06-09T13:28:50.401Z,42.30
2017-06-09T13:31:18.456Z,42.40
2017-06-09T13:33:46.140Z,41.80
2017-06-09T13:36:13.885Z,42.00
2017-06-09T13:38:41.657Z,41.80
2017-06-09T13:41:09.281Z,40.80
2017-06-09T13:43:37.209Z,40.40
2017-06-09T13:46:04.833Z,40.60
2017-06-09T13:48:32.457Z,40.80
2017-06-09T13:51:00.115Z,40.90
2017-06-09T13:53:27.734Z,40.80
2017-06-09T13:55:55.667Z,40.80
2017-06-09T13:58:23.298Z,41.10
2017-06-09T14:00:54.064Z,41.00
2017-06-09T14:03:21.961Z,40.90
2017-06-09T14:05:49.577Z,40.80
2017-06-09T14:08:17.527Z,41.40
2017-06-09T14:10:45.981Z,41.80
2017-06-09T14:13:13.605Z,41.80
2017-06-09T14:15:41.385Z,41.60
2017-06-09T14:18:09.009Z,41.50
2017-06-09T14:20:36.810Z,41.90
2017-06-09T14:23:05.535Z,42.00
2017-06-09T14:25:33.977Z,41.70
2017-06-09T14:28:01.739Z,41.60
2017-06-09T14:30:29.434Z,42.00
2017-06-09T14:32:57.087Z,42.00
2017-06-09T14:35:24.714Z,43.30
2017-06-09T14:37:52.798Z,43.80
2017-06-09T14:40:20.430Z,44.60
2017-06-09T14:42:48.223Z,45.40
2017-06-09T14:45:16.185Z,46.10
2017-06-09T14:47:43.819Z,46.00
2017-06-09T14:50:11.617Z,46.10
2017-06-09T14:52:39.275Z,46.40
2017-06-09T14:55:06.947Z,46.90
2017-06-09T14:57:34.931Z,47.50
2017-06-09T15:00:02.689Z,48.10
2017-06-09T15:02:30.337Z,48.20
2017-06-09T15:04:58.107Z,48.60
2017-06-09T15:07:25.734Z,49.00
2017-06-09T15:09:53.835Z,49.30
2017-06-09T15:12:21.457Z,49.60
2017-06-09T15:14:49.175Z,49.70
2017-06-09T15:17:16.937Z,49.90
2017-06-09T15:19:44.601Z,50.10
2017-06-09T15:22:12.539Z,50.80
2017-06-09T15:24:40.161Z,50.90
2017-06-09T15:27:08.557Z,51.60
2017-06-09T15:29:36.357Z,51.60
2017-06-09T15:32:04.037Z,51.80
2017-06-09T15:34:32.116Z,51.90
2017-06-09T15:36:59.738Z,51.90
2017-06-09T15:39:27.358Z,52.30
2017-06-09T15:41:55.897Z,52.60
2017-06-09T15:44:23.557Z,52.50
2017-06-09T15:46:51.547Z,52.50
2017-06-09T15:49:19.290Z,52.80
2017-06-09T15:51:46.953Z,52.90
2017-06-09T15:54:14.635Z,53.10
2017-06-09T15:56:42.378Z,53.20
2017-06-09T15:59:10.308Z,53.60
2017-06-09T16:01:38.113Z,53.50
2017-06-09T16:04:05.875Z,53.40
2017-06-09T16:06:33.557Z,53.50
2017-06-09T16:09:01.301Z,53.60
2017-06-09T16:11:29.297Z,53.50
2017-06-09T16:13:57.035Z,53.50
2017-06-09T16:16:24.713Z,53.60
2017-06-09T16:18:52.458Z,54.00
2017-06-09T16:21:20.138Z,53.90
2017-06-09T16:23:48.194Z,54.00
2017-06-09T16:26:15.960Z,54.60
2017-06-09T16:28:43.601Z,54.10
2017-06-09T16:31:11.282Z,54.20
2017-06-09T16:33:38.942Z,54.20
2017-06-09T16:36:06.909Z,54.10
2017-06-09T16:38:34.590Z,54.50
2017-06-09T16:41:02.232Z,54.60
2017-06-09T16:43:29.916Z,54.40
2017-06-09T16:45:57.662Z,54.50
2017-06-09T16:48:25.631Z,54.60
2017-06-09T16:50:53.406Z,54.70
2017-06-09T16:53:21.159Z,54.80
2017-06-09T16:55:48.924Z,55.00
2017-06-09T16:58:16.687Z,55.30
2017-06-09T17:00:44.635Z,55.40
2017-06-09T17:03:12.258Z,55.60
2017-06-09T17:05:40.697Z,55.70
2017-06-09T17:08:08.351Z,55.70
2017-06-09T17:10:36.123Z,55.90
2017-06-09T17:13:04.217Z,56.00
2017-06-09T17:15:31.855Z,56.10
2017-06-09T17:17:59.624Z,56.20
2017-06-09T17:20:27.273Z,56.30
2017-06-09T17:22:54.912Z,56.40
2017-06-09T17:25:22.935Z,56.40
2017-06-09T17:27:50.559Z,56.60
2017-06-09T17:30:18.181Z,56.80
2017-06-09T17:32:46.717Z,57.00
2017-06-09T17:35:14.483Z,57.00
2017-06-09T17:37:43.309Z,57.20
2017-06-09T17:40:11.693Z,57.30
2017-06-09T17:42:40.096Z,57.50
2017-06-09T17:45:07.794Z,57.40
2017-06-09T17:47:35.553Z,57.40
2017-06-09T17:50:03.481Z,57.40
2017-06-09T17:52:31.289Z,57.50
2017-06-09T17:54:58.914Z,57.60
2017-06-09T17:57:26.714Z,57.80
2017-06-09T17:59:54.499Z,57.90
2017-06-09T18:02:22.651Z,58.10
2017-06-09T18:04:50.335Z,58.20
2017-06-09T18:07:17.996Z,58.00
2017-06-09T18:09:45.654Z,58.00
2017-06-09T18:12:13.402Z,58.00
2017-06-09T18:14:41.404Z,58.00
2017-06-09T18:17:09.134Z,58.00
2017-06-09T18:19:36.810Z,58.40
2017-06-09T18:22:04.479Z,57.90
2017-06-09T18:24:32.223Z,58.30
2017-06-09T18:27:00.212Z,58.10
2017-06-09T18:29:28.056Z,58.20
2017-06-09T18:31:55.823Z,58.20
2017-06-09T18:34:23.586Z,58.20
2017-06-09T18:36:51.350Z,58.30
2017-06-09T18:39:20.343Z,58.20
2017-06-09T18:41:48.006Z,58.00
2017-06-09T18:44:15.771Z,57.90
2017-06-09T18:46:43.636Z,57.70
2017-06-09T18:49:11.321Z,57.60
2017-06-09T18:51:39.250Z,57.40
2017-06-09T18:54:06.892Z,57.30
2017-06-09T18:56:34.513Z,57.10
2017-06-09T18:59:02.266Z,57.20
2017-06-09T19:01:29.896Z,57.00
2017-06-09T19:03:58.090Z,57.20
2017-06-09T19:06:25.771Z,57.20
2017-06-09T19:08:53.427Z,57.10
2017-06-09T19:11:21.092Z,57.00
2017-06-09T19:13:48.958Z,57.30
2017-06-09T19:16:17.011Z,56.80
2017-06-09T19:18:44.690Z,56.70
2017-06-09T19:21:12.438Z,56.50
2017-06-09T19:23:40.091Z,56.50
2017-06-09T19:26:07.710Z,56.70
2017-06-09T19:28:35.831Z,56.50
2017-06-09T19:31:04.520Z,56.60
2017-06-09T19:33:32.176Z,56.40
2017-06-09T19:35:59.863Z,56.60
2017-06-09T19:38:27.529Z,56.70
2017-06-09T19:40:55.771Z,56.50
2017-06-09T19:43:23.463Z,56.60
2017-06-09T19:45:51.207Z,56.80
2017-06-09T19:48:18.969Z,57.00
2017-06-09T19:50:46.736Z,57.10
2017-06-09T19:53:14.694Z,57.40
2017-06-09T19:55:42.394Z,57.40
2017-06-09T19:58:10.807Z,58.20
2017-06-09T20:00:38.453Z,57.70
2017-06-09T20:03:06.900Z,57.60
2017-06-09T20:05:34.865Z,57.50
2017-06-09T20:08:02.486Z,57.70
2017-06-09T20:10:30.113Z,57.70
2017-06-09T20:12:58.659Z,57.80
2017-06-09T20:15:26.321Z,57.80
2017-06-09T20:17:54.269Z,57.70
2017-06-09T20:20:21.890Z,57.50
2017-06-09T20:22:50.285Z,57.70
2017-06-09T20:25:17.938Z,57.60
2017-06-09T20:27:46.395Z,57.60
2017-06-09T20:30:14.436Z,57.60
2017-06-09T20:32:42.106Z,57.60
2017-06-09T20:35:09.796Z,57.60
2017-06-09T20:37:37.558Z,57.60
2017-06-09T20:40:05.215Z,57.60
2017-06-09T20:42:32.991Z,57.80
2017-06-09T20:45:00.720Z,57.60
2017-06-09T20:47:28.485Z,57.70
2017-06-09T20:49:56.248Z,57.80
2017-06-09T20:52:24.013Z,57.70
2017-06-09T20:54:51.779Z,57.60
2017-06-09T20:57:19.457Z,57.50
2017-06-09T20:59:47.204Z,57.60
2017-06-09T21:02:14.888Z,57.60
2017-06-09T21:04:42.523Z,57.50
2017-06-09T21:07:10.213Z,57.50
2017-06-09T21:09:37.969Z,57.50
2017-06-09T21:12:05.589Z,57.50
2017-06-09T21:14:33.378Z,57.60
2017-06-09T21:17:01.143Z,57.50
2017-06-09T21:19:28.927Z,57.40
2017-06-09T21:21:56.671Z,57.40
2017-06-09T21:24:24.354Z,57.40
2017-06-09T21:26:52.609Z,57.30
2017-06-09T21:29:20.256Z,57.40
2017-06-09T21:31:48.032Z,57.40
2017-06-09T21:34:15.662Z,57.50
2017-06-09T21:36:43.289Z,57.40
2017-06-09T21:39:11.020Z,57.50
2017-06-09T21:41:38.652Z,57.30
2017-06-09T21:44:06.317Z,57.20
2017-06-09T21:46:34.036Z,57.30
2017-06-09T21:49:01.770Z,57.30
2017-06-09T21:51:29.470Z,57.20
2017-06-09T21:53:57.105Z,57.10
2017-06-09T21:56:24.781Z,56.60
2017-06-09T21:58:52.644Z,57.10
2017-06-09T22:01:20.304Z,57.10
2017-06-09T22:03:48.150Z,57.00
2017-06-09T22:06:15.782Z,57.00
2017-06-09T22:08:43.450Z,57.20
2017-06-09T22:11:11.238Z,56.80
2017-06-09T22:13:38.900Z,56.80
2017-06-09T22:16:06.664Z,56.80
2017-06-09T22:18:34.289Z,56.70
2017-06-09T22:21:02.002Z,56.90
2017-06-09T22:23:29.647Z,57.00
2017-06-09T22:25:57.412Z,57.10
2017-06-09T22:28:25.178Z,56.80
2017-06-09T22:30:52.942Z,56.80
2017-06-09T22:33:20.705Z,56.80
2017-06-09T22:35:48.348Z,56.60
2017-06-09T22:38:16.132Z,57.10
2017-06-09T22:40:43.822Z,56.70
2017-06-09T22:43:12.222Z,56.50
2017-06-09T22:45:40.657Z,56.50
2017-06-09T22:48:08.313Z,56.40
2017-06-09T22:50:36.081Z,56.60
2017-06-09T22:53:03.769Z,56.30
2017-06-09T22:55:31.735Z,56.30
2017-06-09T22:57:59.406Z,56.40
2017-06-09T23:00:27.958Z,57.00
2017-06-09T23:02:55.582Z,56.30
2017-06-09T23:05:23.256Z,56.40
2017-06-09T23:07:50.874Z,56.30
2017-06-09T23:10:18.620Z,56.40
2017-06-09T23:12:46.365Z,55.90
2017-06-09T23:15:14.001Z,56.30
2017-06-09T23:17:41.717Z,56.30
2017-06-09T23:20:09.376Z,56.60
2017-06-09T23:22:42.768Z,56.50
2017-06-09T23:25:10.535Z,56.40
2017-06-09T23:27:38.195Z,56.40
2017-06-09T23:30:05.859Z,56.70
2017-06-09T23:32:33.487Z,56.60
2017-06-09T23:35:01.154Z,56.70
2017-06-09T23:37:28.785Z,56.70
2017-06-09T23:39:56.482Z,56.70
2017-06-09T23:42:24.247Z,56.70
2017-06-09T23:44:52.046Z,56.50
2017-06-09T23:47:20.508Z,56.90
2017-06-09T23:49:48.139Z,56.50
2017-06-09T23:52:15.765Z,56.30
2017-06-09T23:54:44.199Z,56.40
2017-06-09T23:57:11.827Z,56.20
2017-06-09T23:59:39.510Z,56.20
